sensor_id;sensor_type;location;lat;lon;timestamp;P1;durP1;ratioP1;P2;durP2;ratioP2
1593;SDS011;790;47.000;16.084;2023-06-10T00:00:43;7.20;;;5.77;;
1593;SDS011;790;47.000;16.084;2023-06-10T00:03:10;6.83;;;6.27;;
1593;SDS011;790;47.000;16.084;2023-06-10T00:05:38;6.80;;;6.10;;
1593;SDS011;790;47.000;16.084;2023-06-10T00:08:06;6.73;;;6.20;;
1593;SDS011;790;47.000;16.084;2023-06-10T00:10:35;7.43;;;6.00;;
1593;SDS011;790;47.000;16.084;2023-06-10T00:13:03;6.53;;;5.50;;
1593;SDS011;790;47.000;16.084;2023-06-10T00:15:33;6.53;;;6.00;;
1593;SDS011;790;47.000;16.084;2023-06-10T00:18:02;6.33;;;5.80;;
1593;SDS011;790;47.000;16.084;2023-06-10T00:20:30;6.47;;;5.60;;
1593;SDS011;790;47.000;16.084;2023-06-10T00:22:57;6.87;;;6.27;;
1593;SDS011;790;47.000;16.084;2023-06-10T00:25:26;6.53;;;5.93;;
1593;SDS011;790;47.000;16.084;2023-06-10T00:27:56;7.03;;;6.43;;
1593;SDS011;790;47.000;16.084;2023-06-10T00:30:23;6.47;;;5.97;;
1593;SDS011;790;47.000;16.084;2023-06-10T00:32:50;6.47;;;5.73;;
1593;SDS011;790;47.000;16.084;2023-06-10T00:35:17;6.40;;;5.90;;
1593;SDS011;790;47.000;16.084;2023-06-10T00:37:44;6.40;;;5.90;;
1593;SDS011;790;47.000;16.084;2023-06-10T00:40:11;6.20;;;5.60;;
1593;SDS011;790;47.000;16.084;2023-06-10T00:42:39;6.55;;;6.05;;
1593;SDS011;790;47.000;16.084;2023-06-10T00:45:07;6.53;;;5.93;;
1593;SDS011;790;47.000;16.084;2023-06-10T00:47:35;7.13;;;6.63;;
1593;SDS011;790;47.000;16.084;2023-06-10T00:50:04;10.60;;;6.15;;
1593;SDS011;790;47.000;16.084;2023-06-10T00:52:32;6.87;;;6.27;;
1593;SDS011;790;47.000;16.084;2023-06-10T00:55:01;6.70;;;6.10;;
1593;SDS011;790;47.000;16.084;2023-06-10T00:57:29;6.80;;;6.20;;
1593;SDS011;790;47.000;16.084;2023-06-10T00:59:57;7.53;;;5.72;;
1593;SDS011;790;47.000;16.084;2023-06-10T01:02:29;6.50;;;6.00;;
1593;SDS011;790;47.000;16.084;2023-06-10T01:04:57;6.67;;;6.17;;
1593;SDS011;790;47.000;16.084;2023-06-10T01:07:27;6.97;;;6.37;;
1593;SDS011;790;47.000;16.084;2023-06-10T01:10:01;8.80;;;6.90;;
1593;SDS011;790;47.000;16.084;2023-06-10T01:12:33;7.13;;;6.50;;
1593;SDS011;790;47.000;16.084;2023-06-10T01:15:05;9.40;;;6.67;;
1593;SDS011;790;47.000;16.084;2023-06-10T01:17:37;7.53;;;6.93;;
1593;SDS011;790;47.000;16.084;2023-06-10T01:20:19;9.20;;;8.40;;
1593;SDS011;790;47.000;16.084;2023-06-10T01:22:47;8.23;;;7.43;;
1593;SDS011;790;47.000;16.084;2023-06-10T01:25:15;10.37;;;8.27;;
1593;SDS011;790;47.000;16.084;2023-06-10T01:27:44;11.00;;;8.20;;
1593;SDS011;790;47.000;16.084;2023-06-10T01:30:15;9.13;;;8.25;;
1593;SDS011;790;47.000;16.084;2023-06-10T01:32:51;10.73;;;7.90;;
1593;SDS011;790;47.000;16.084;2023-06-10T01:35:19;9.82;;;8.82;;
1593;SDS011;790;47.000;16.084;2023-06-10T01:37:52;12.48;;;8.07;;
1593;SDS011;790;47.000;16.084;2023-06-10T01:40:21;9.57;;;7.72;;
1593;SDS011;790;47.000;16.084;2023-06-10T01:42:50;13.43;;;7.50;;
1593;SDS011;790;47.000;16.084;2023-06-10T01:45:18;11.43;;;7.88;;
1593;SDS011;790;47.000;16.084;2023-06-10T01:47:45;9.85;;;7.80;;
1593;SDS011;790;47.000;16.084;2023-06-10T01:50:12;8.23;;;7.35;;
1593;SDS011;790;47.000;16.084;2023-06-10T01:52:40;8.52;;;7.38;;
1593;SDS011;790;47.000;16.084;2023-06-10T01:55:08;8.52;;;7.78;;
1593;SDS011;790;47.000;16.084;2023-06-10T01:57:35;7.70;;;6.77;;
1593;SDS011;790;47.000;16.084;2023-06-10T02:00:02;11.25;;;7.65;;
1593;SDS011;790;47.000;16.084;2023-06-10T02:02:30;13.37;;;7.97;;
1593;SDS011;790;47.000;16.084;2023-06-10T02:04:57;8.43;;;7.73;;
1593;SDS011;790;47.000;16.084;2023-06-10T02:07:25;10.88;;;7.95;;
1593;SDS011;790;47.000;16.084;2023-06-10T02:09:52;15.77;;;8.20;;
1593;SDS011;790;47.000;16.084;2023-06-10T02:12:21;12.10;;;7.80;;
1593;SDS011;790;47.000;16.084;2023-06-10T02:14:48;18.37;;;7.83;;
1593;SDS011;790;47.000;16.084;2023-06-10T02:17:15;8.00;;;7.40;;
1593;SDS011;790;47.000;16.084;2023-06-10T02:19:43;8.87;;;7.53;;
1593;SDS011;790;47.000;16.084;2023-06-10T02:22:17;8.53;;;7.80;;
1593;SDS011;790;47.000;16.084;2023-06-10T02:24:48;7.27;;;6.77;;
1593;SDS011;790;47.000;16.084;2023-06-10T02:27:15;7.17;;;6.67;;
1593;SDS011;790;47.000;16.084;2023-06-10T02:29:45;8.10;;;7.07;;
1593;SDS011;790;47.000;16.084;2023-06-10T02:32:13;6.53;;;6.10;;
1593;SDS011;790;47.000;16.084;2023-06-10T02:34:40;7.47;;;6.77;;
1593;SDS011;790;47.000;16.084;2023-06-10T02:37:08;7.93;;;7.27;;
1593;SDS011;790;47.000;16.084;2023-06-10T02:39:35;7.80;;;7.17;;
1593;SDS011;790;47.000;16.084;2023-06-10T02:42:02;7.03;;;6.50;;
1593;SDS011;790;47.000;16.084;2023-06-10T02:44:30;9.27;;;7.30;;
1593;SDS011;790;47.000;16.084;2023-06-10T02:46:59;7.13;;;6.63;;
1593;SDS011;790;47.000;16.084;2023-06-10T02:49:26;7.63;;;6.78;;
1593;SDS011;790;47.000;16.084;2023-06-10T02:51:54;7.37;;;6.67;;
1593;SDS011;790;47.000;16.084;2023-06-10T02:54:22;7.33;;;6.73;;
1593;SDS011;790;47.000;16.084;2023-06-10T02:56:49;11.27;;;7.47;;
1593;SDS011;790;47.000;16.084;2023-06-10T02:59:17;13.67;;;7.33;;
1593;SDS011;790;47.000;16.084;2023-06-10T03:01:45;8.97;;;7.97;;
1593;SDS011;790;47.000;16.084;2023-06-10T03:04:13;13.07;;;7.97;;
1593;SDS011;790;47.000;16.084;2023-06-10T03:06:41;8.73;;;7.90;;
1593;SDS011;790;47.000;16.084;2023-06-10T03:09:08;9.60;;;7.80;;
1593;SDS011;790;47.000;16.084;2023-06-10T03:11:35;9.17;;;7.27;;
1593;SDS011;790;47.000;16.084;2023-06-10T03:14:02;9.43;;;8.40;;
1593;SDS011;790;47.000;16.084;2023-06-10T03:16:29;9.83;;;8.87;;
1593;SDS011;790;47.000;16.084;2023-06-10T03:18:58;10.87;;;9.20;;
1593;SDS011;790;47.000;16.084;2023-06-10T03:21:27;12.23;;;11.17;;
1593;SDS011;790;47.000;16.084;2023-06-10T03:23:54;21.80;;;17.10;;
1593;SDS011;790;47.000;16.084;2023-06-10T03:26:21;36.65;;;27.58;;
1593;SDS011;790;47.000;16.084;2023-06-10T03:28:48;24.23;;;16.90;;
1593;SDS011;790;47.000;16.084;2023-06-10T03:31:15;30.63;;;10.43;;
1593;SDS011;790;47.000;16.084;2023-06-10T03:33:43;16.23;;;9.50;;
1593;SDS011;790;47.000;16.084;2023-06-10T03:36:10;9.17;;;8.07;;
1593;SDS011;790;47.000;16.084;2023-06-10T03:38:38;10.03;;;9.23;;
1593;SDS011;790;47.000;16.084;2023-06-10T03:41:05;12.40;;;9.47;;
1593;SDS011;790;47.000;16.084;2023-06-10T03:43:32;20.20;;;9.17;;
1593;SDS011;790;47.000;16.084;2023-06-10T03:45:59;10.60;;;9.60;;
1593;SDS011;790;47.000;16.084;2023-06-10T03:48:27;22.37;;;9.90;;
1593;SDS011;790;47.000;16.084;2023-06-10T03:50:56;16.57;;;11.00;;
1593;SDS011;790;47.000;16.084;2023-06-10T03:53:23;10.30;;;9.43;;
1593;SDS011;790;47.000;16.084;2023-06-10T03:55:52;10.67;;;9.70;;
1593;SDS011;790;47.000;16.084;2023-06-10T03:58:19;10.37;;;9.40;;
1593;SDS011;790;47.000;16.084;2023-06-10T04:00:46;10.33;;;9.43;;
1593;SDS011;790;47.000;16.084;2023-06-10T04:03:14;10.30;;;9.33;;
1593;SDS011;790;47.000;16.084;2023-06-10T04:05:42;9.13;;;8.43;;
1593;SDS011;790;47.000;16.084;2023-06-10T04:08:10;10.13;;;9.23;;
1593;SDS011;790;47.000;16.084;2023-06-10T04:10:37;10.07;;;9.37;;
1593;SDS011;790;47.000;16.084;2023-06-10T04:13:05;10.00;;;9.23;;
1593;SDS011;790;47.000;16.084;2023-06-10T04:15:32;9.07;;;8.47;;
1593;SDS011;790;47.000;16.084;2023-06-10T04:17:59;9.47;;;8.77;;
1593;SDS011;790;47.000;16.084;2023-06-10T04:20:27;9.97;;;9.17;;
1593;SDS011;790;47.000;16.084;2023-06-10T04:22:54;8.93;;;8.33;;
1593;SDS011;790;47.000;16.084;2023-06-10T04:25:21;9.30;;;8.60;;
1593;SDS011;790;47.000;16.084;2023-06-10T04:27:49;8.53;;;7.93;;
1593;SDS011;790;47.000;16.084;2023-06-10T04:30:18;9.50;;;8.77;;
1593;SDS011;790;47.000;16.084;2023-06-10T04:32:45;9.00;;;8.20;;
1593;SDS011;790;47.000;16.084;2023-06-10T04:35:12;9.00;;;8.30;;
1593;SDS011;790;47.000;16.084;2023-06-10T04:37:39;8.37;;;7.77;;
1593;SDS011;790;47.000;16.084;2023-06-10T04:40:08;8.90;;;8.20;;
1593;SDS011;790;47.000;16.084;2023-06-10T04:42:36;8.43;;;7.82;;
1593;SDS011;790;47.000;16.084;2023-06-10T04:45:03;8.77;;;8.18;;
1593;SDS011;790;47.000;16.084;2023-06-10T04:47:32;8.18;;;7.50;;
1593;SDS011;790;47.000;16.084;2023-06-10T04:49:59;9.33;;;8.70;;
1593;SDS011;790;47.000;16.084;2023-06-10T04:52:28;8.30;;;7.68;;
1593;SDS011;790;47.000;16.084;2023-06-10T04:54:56;8.57;;;7.97;;
1593;SDS011;790;47.000;16.084;2023-06-10T04:57:24;7.95;;;7.43;;
1593;SDS011;790;47.000;16.084;2023-06-10T04:59:51;8.68;;;7.90;;
1593;SDS011;790;47.000;16.084;2023-06-10T05:02:18;7.97;;;7.38;;
1593;SDS011;790;47.000;16.084;2023-06-10T05:04:48;7.40;;;6.70;;
1593;SDS011;790;47.000;16.084;2023-06-10T05:07:15;7.88;;;7.32;;
1593;SDS011;790;47.000;16.084;2023-06-10T05:09:43;7.75;;;7.15;;
1593;SDS011;790;47.000;16.084;2023-06-10T05:12:10;7.50;;;7.00;;
1593;SDS011;790;47.000;16.084;2023-06-10T05:14:37;12.07;;;11.07;;
1593;SDS011;790;47.000;16.084;2023-06-10T05:17:04;9.82;;;8.88;;
1593;SDS011;790;47.000;16.084;2023-06-10T05:19:32;9.00;;;8.40;;
1593;SDS011;790;47.000;16.084;2023-06-10T05:22:02;8.70;;;8.15;;
1593;SDS011;790;47.000;16.084;2023-06-10T05:24:29;8.70;;;8.07;;
1593;SDS011;790;47.000;16.084;2023-06-10T05:26:56;8.73;;;8.15;;
1593;SDS011;790;47.000;16.084;2023-06-10T05:29:24;7.88;;;7.38;;
1593;SDS011;790;47.000;16.084;2023-06-10T05:31:52;8.18;;;7.47;;
1593;SDS011;790;47.000;16.084;2023-06-10T05:34:21;7.68;;;7.07;;
1593;SDS011;790;47.000;16.084;2023-06-10T05:36:48;9.30;;;8.32;;
1593;SDS011;790;47.000;16.084;2023-06-10T05:39:17;7.93;;;7.43;;
1593;SDS011;790;47.000;16.084;2023-06-10T05:41:45;7.22;;;6.57;;
1593;SDS011;790;47.000;16.084;2023-06-10T05:44:15;8.25;;;7.63;;
1593;SDS011;790;47.000;16.084;2023-06-10T05:46:42;7.50;;;7.00;;
1593;SDS011;790;47.000;16.084;2023-06-10T05:49:09;7.57;;;7.00;;
1593;SDS011;790;47.000;16.084;2023-06-10T05:51:36;7.97;;;7.43;;
1593;SDS011;790;47.000;16.084;2023-06-10T05:54:04;7.25;;;6.75;;
1593;SDS011;790;47.000;16.084;2023-06-10T05:56:32;7.60;;;7.10;;
1593;SDS011;790;47.000;16.084;2023-06-10T05:59:02;7.65;;;7.15;;
1593;SDS011;790;47.000;16.084;2023-06-10T06:01:31;8.18;;;7.57;;
1593;SDS011;790;47.000;16.084;2023-06-10T06:03:58;7.57;;;7.03;;
1593;SDS011;790;47.000;16.084;2023-06-10T06:06:25;8.00;;;7.32;;
1593;SDS011;790;47.000;16.084;2023-06-10T06:08:52;7.63;;;7.13;;
1593;SDS011;790;47.000;16.084;2023-06-10T06:11:19;6.78;;;6.38;;
1593;SDS011;790;47.000;16.084;2023-06-10T06:13:48;7.57;;;7.00;;
1593;SDS011;790;47.000;16.084;2023-06-10T06:16:15;6.65;;;6.25;;
1593;SDS011;790;47.000;16.084;2023-06-10T06:18:43;6.35;;;5.95;;
1593;SDS011;790;47.000;16.084;2023-06-10T06:21:10;7.60;;;7.00;;
1593;SDS011;790;47.000;16.084;2023-06-10T06:23:37;6.45;;;5.95;;
1593;SDS011;790;47.000;16.084;2023-06-10T06:26:04;7.30;;;6.53;;
1593;SDS011;790;47.000;16.084;2023-06-10T06:28:33;6.32;;;5.90;;
1593;SDS011;790;47.000;16.084;2023-06-10T06:31:02;10.10;;;8.20;;
1593;SDS011;790;47.000;16.084;2023-06-10T06:33:29;7.30;;;6.80;;
1593;SDS011;790;47.000;16.084;2023-06-10T06:35:56;6.72;;;6.32;;
1593;SDS011;790;47.000;16.084;2023-06-10T06:38:23;6.05;;;5.65;;
1593;SDS011;790;47.000;16.084;2023-06-10T06:40:50;6.25;;;5.85;;
1593;SDS011;790;47.000;16.084;2023-06-10T06:43:17;6.53;;;6.03;;
1593;SDS011;790;47.000;16.084;2023-06-10T06:45:44;7.15;;;6.65;;
1593;SDS011;790;47.000;16.084;2023-06-10T06:48:12;6.47;;;5.97;;
1593;SDS011;790;47.000;16.084;2023-06-10T06:50:40;7.13;;;6.45;;
1593;SDS011;790;47.000;16.084;2023-06-10T06:53:10;5.88;;;5.47;;
1593;SDS011;790;47.000;16.084;2023-06-10T06:55:37;6.50;;;5.88;;
1593;SDS011;790;47.000;16.084;2023-06-10T06:58:04;6.40;;;6.00;;
1593;SDS011;790;47.000;16.084;2023-06-10T07:00:31;6.45;;;5.85;;
1593;SDS011;790;47.000;16.084;2023-06-10T07:02:58;6.10;;;5.60;;
1593;SDS011;790;47.000;16.084;2023-06-10T07:05:27;6.05;;;5.68;;
1593;SDS011;790;47.000;16.084;2023-06-10T07:07:55;6.82;;;6.30;;
1593;SDS011;790;47.000;16.084;2023-06-10T07:10:22;6.60;;;6.05;;
1593;SDS011;790;47.000;16.084;2023-06-10T07:12:49;6.40;;;5.90;;
1593;SDS011;790;47.000;16.084;2023-06-10T07:15:17;6.38;;;5.88;;
1593;SDS011;790;47.000;16.084;2023-06-10T07:17:44;6.20;;;5.78;;
1593;SDS011;790;47.000;16.084;2023-06-10T07:20:11;6.35;;;5.90;;
1593;SDS011;790;47.000;16.084;2023-06-10T07:22:41;6.38;;;5.88;;
1593;SDS011;790;47.000;16.084;2023-06-10T07:25:08;6.80;;;6.15;;
1593;SDS011;790;47.000;16.084;2023-06-10T07:27:37;5.82;;;5.53;;
1593;SDS011;790;47.000;16.084;2023-06-10T07:30:04;5.75;;;5.28;;
1593;SDS011;790;47.000;16.084;2023-06-10T07:32:33;6.60;;;6.00;;
1593;SDS011;790;47.000;16.084;2023-06-10T07:35:00;7.53;;;5.95;;
1593;SDS011;790;47.000;16.084;2023-06-10T07:37:27;6.22;;;5.72;;
1593;SDS011;790;47.000;16.084;2023-06-10T07:39:56;6.07;;;5.68;;
1593;SDS011;790;47.000;16.084;2023-06-10T07:42:23;6.13;;;5.72;;
1593;SDS011;790;47.000;16.084;2023-06-10T07:44:50;5.68;;;5.38;;
1593;SDS011;790;47.000;16.084;2023-06-10T07:47:17;6.45;;;6.05;;
1593;SDS011;790;47.000;16.084;2023-06-10T07:49:45;6.28;;;5.78;;
1593;SDS011;790;47.000;16.084;2023-06-10T07:52:12;9.98;;;9.27;;
1593;SDS011;790;47.000;16.084;2023-06-10T07:54:39;6.65;;;6.05;;
1593;SDS011;790;47.000;16.084;2023-06-10T07:57:07;6.60;;;6.03;;
1593;SDS011;790;47.000;16.084;2023-06-10T07:59:35;6.00;;;5.50;;
1593;SDS011;790;47.000;16.084;2023-06-10T08:02:02;6.93;;;6.43;;
1593;SDS011;790;47.000;16.084;2023-06-10T08:04:29;6.28;;;5.72;;
1593;SDS011;790;47.000;16.084;2023-06-10T08:06:56;6.47;;;6.05;;
1593;SDS011;790;47.000;16.084;2023-06-10T08:09:24;7.18;;;6.53;;
1593;SDS011;790;47.000;16.084;2023-06-10T08:11:51;7.38;;;6.88;;
1593;SDS011;790;47.000;16.084;2023-06-10T08:14:19;6.63;;;6.13;;
1593;SDS011;790;47.000;16.084;2023-06-10T08:16:46;7.00;;;6.40;;
1593;SDS011;790;47.000;16.084;2023-06-10T08:19:13;6.88;;;6.38;;
1593;SDS011;790;47.000;16.084;2023-06-10T08:21:40;6.85;;;6.45;;
1593;SDS011;790;47.000;16.084;2023-06-10T08:24:07;6.90;;;6.40;;
1593;SDS011;790;47.000;16.084;2023-06-10T08:26:35;6.45;;;5.95;;
1593;SDS011;790;47.000;16.084;2023-06-10T08:29:02;8.50;;;7.75;;
1593;SDS011;790;47.000;16.084;2023-06-10T08:31:30;6.93;;;6.43;;
1593;SDS011;790;47.000;16.084;2023-06-10T08:33:57;7.05;;;6.45;;
1593;SDS011;790;47.000;16.084;2023-06-10T08:36:25;6.95;;;6.35;;
1593;SDS011;790;47.000;16.084;2023-06-10T08:38:52;7.10;;;6.60;;
1593;SDS011;790;47.000;16.084;2023-06-10T08:41:19;6.57;;;6.10;;
1593;SDS011;790;47.000;16.084;2023-06-10T08:43:52;7.07;;;6.47;;
1593;SDS011;790;47.000;16.084;2023-06-10T08:46:27;7.20;;;6.60;;
1593;SDS011;790;47.000;16.084;2023-06-10T08:48:59;6.82;;;6.22;;
1593;SDS011;790;47.000;16.084;2023-06-10T08:51:31;6.50;;;6.10;;
1593;SDS011;790;47.000;16.084;2023-06-10T08:54:01;6.53;;;6.05;;
1593;SDS011;790;47.000;16.084;2023-06-10T08:56:30;7.07;;;6.53;;
1593;SDS011;790;47.000;16.084;2023-06-10T08:59:00;6.18;;;5.78;;
1593;SDS011;790;47.000;16.084;2023-06-10T09:01:28;6.57;;;6.13;;
1593;SDS011;790;47.000;16.084;2023-06-10T09:03:56;6.57;;;6.18;;
1593;SDS011;790;47.000;16.084;2023-06-10T09:06:25;6.30;;;5.88;;
1593;SDS011;790;47.000;16.084;2023-06-10T09:08:55;6.70;;;6.18;;
1593;SDS011;790;47.000;16.084;2023-06-10T09:11:24;7.65;;;6.95;;
1593;SDS011;790;47.000;16.084;2023-06-10T09:13:52;6.93;;;6.43;;
1593;SDS011;790;47.000;16.084;2023-06-10T09:16:19;6.53;;;6.03;;
1593;SDS011;790;47.000;16.084;2023-06-10T09:18:46;6.25;;;5.72;;
1593;SDS011;790;47.000;16.084;2023-06-10T09:21:13;6.43;;;6.03;;
1593;SDS011;790;47.000;16.084;2023-06-10T09:23:41;6.75;;;6.25;;
1593;SDS011;790;47.000;16.084;2023-06-10T09:26:09;6.95;;;6.55;;
1593;SDS011;790;47.000;16.084;2023-06-10T09:28:37;6.78;;;6.28;;
1593;SDS011;790;47.000;16.084;2023-06-10T09:31:07;7.53;;;7.00;;
1593;SDS011;790;47.000;16.084;2023-06-10T09:33:37;5.90;;;5.47;;
1593;SDS011;790;47.000;16.084;2023-06-10T09:36:04;5.72;;;5.35;;
1593;SDS011;790;47.000;16.084;2023-06-10T09:38:33;6.68;;;6.18;;
1593;SDS011;790;47.000;16.084;2023-06-10T09:41:02;5.95;;;5.55;;
1593;SDS011;790;47.000;16.084;2023-06-10T09:43:40;6.05;;;5.47;;
1593;SDS011;790;47.000;16.084;2023-06-10T09:46:13;6.05;;;5.55;;
1593;SDS011;790;47.000;16.084;2023-06-10T09:48:42;5.82;;;5.32;;
1593;SDS011;790;47.000;16.084;2023-06-10T09:51:10;5.90;;;5.43;;
1593;SDS011;790;47.000;16.084;2023-06-10T09:53:38;5.88;;;5.47;;
1593;SDS011;790;47.000;16.084;2023-06-10T09:56:07;5.38;;;5.07;;
1593;SDS011;790;47.000;16.084;2023-06-10T09:58:37;5.80;;;5.38;;
1593;SDS011;790;47.000;16.084;2023-06-10T10:01:04;6.07;;;5.55;;
1593;SDS011;790;47.000;16.084;2023-06-10T10:03:32;5.72;;;5.30;;
1593;SDS011;790;47.000;16.084;2023-06-10T10:05:59;6.28;;;5.75;;
1593;SDS011;790;47.000;16.084;2023-06-10T10:08:27;5.95;;;5.45;;
1593;SDS011;790;47.000;16.084;2023-06-10T10:10:54;7.13;;;6.03;;
1593;SDS011;790;47.000;16.084;2023-06-10T10:13:25;6.70;;;6.10;;
1593;SDS011;790;47.000;16.084;2023-06-10T10:15:53;7.25;;;6.75;;
1593;SDS011;790;47.000;16.084;2023-06-10T10:18:23;8.75;;;7.95;;
1593;SDS011;790;47.000;16.084;2023-06-10T10:20:55;8.60;;;7.45;;
1593;SDS011;790;47.000;16.084;2023-06-10T10:23:29;8.50;;;7.70;;
1593;SDS011;790;47.000;16.084;2023-06-10T10:26:02;8.88;;;7.97;;
1593;SDS011;790;47.000;16.084;2023-06-10T10:28:37;8.65;;;7.95;;
1593;SDS011;790;47.000;16.084;2023-06-10T10:31:08;8.23;;;7.55;;
1593;SDS011;790;47.000;16.084;2023-06-10T10:33:40;8.30;;;7.40;;
1593;SDS011;790;47.000;16.084;2023-06-10T10:36:11;8.95;;;8.07;;
1593;SDS011;790;47.000;16.084;2023-06-10T10:38:39;8.07;;;7.30;;
1593;SDS011;790;47.000;16.084;2023-06-10T10:41:08;8.60;;;8.00;;
1593;SDS011;790;47.000;16.084;2023-06-10T10:43:37;7.38;;;6.78;;
1593;SDS011;790;47.000;16.084;2023-06-10T10:46:11;7.93;;;7.32;;
1593;SDS011;790;47.000;16.084;2023-06-10T10:48:39;7.68;;;7.07;;
1593;SDS011;790;47.000;16.084;2023-06-10T10:51:07;7.60;;;7.00;;
1593;SDS011;790;47.000;16.084;2023-06-10T10:53:36;8.15;;;7.55;;
1593;SDS011;790;47.000;16.084;2023-06-10T10:56:04;7.43;;;6.93;;
1593;SDS011;790;47.000;16.084;2023-06-10T10:58:32;7.57;;;7.07;;
1593;SDS011;790;47.000;16.084;2023-06-10T11:01:01;7.55;;;6.93;;
1593;SDS011;790;47.000;16.084;2023-06-10T11:03:42;7.72;;;7.22;;
1593;SDS011;790;47.000;16.084;2023-06-10T11:06:13;7.38;;;6.80;;
1593;SDS011;790;47.000;16.084;2023-06-10T11:08:46;7.90;;;7.40;;
1593;SDS011;790;47.000;16.084;2023-06-10T11:11:18;7.95;;;7.35;;
1593;SDS011;790;47.000;16.084;2023-06-10T11:13:57;7.90;;;7.20;;
1593;SDS011;790;47.000;16.084;2023-06-10T11:16:28;8.50;;;7.70;;
1593;SDS011;790;47.000;16.084;2023-06-10T11:18:56;7.75;;;7.13;;
1593;SDS011;790;47.000;16.084;2023-06-10T11:21:23;6.70;;;6.30;;
1593;SDS011;790;47.000;16.084;2023-06-10T11:23:50;8.60;;;7.75;;
1593;SDS011;790;47.000;16.084;2023-06-10T11:26:19;8.50;;;7.80;;
1593;SDS011;790;47.000;16.084;2023-06-10T11:29:05;8.18;;;7.05;;
1593;SDS011;790;47.000;16.084;2023-06-10T11:31:49;6.63;;;6.13;;
1593;SDS011;790;47.000;16.084;2023-06-10T11:34:23;5.82;;;5.38;;
1593;SDS011;790;47.000;16.084;2023-06-10T11:36:52;5.72;;;5.30;;
1593;SDS011;790;47.000;16.084;2023-06-10T11:39:20;6.78;;;6.25;;
1593;SDS011;790;47.000;16.084;2023-06-10T11:41:52;6.18;;;5.75;;
1593;SDS011;790;47.000;16.084;2023-06-10T11:44:19;7.28;;;6.68;;
1593;SDS011;790;47.000;16.084;2023-06-10T11:46:48;6.25;;;5.85;;
1593;SDS011;790;47.000;16.084;2023-06-10T11:49:16;6.40;;;6.00;;
1593;SDS011;790;47.000;16.084;2023-06-10T11:51:43;5.97;;;5.57;;
1593;SDS011;790;47.000;16.084;2023-06-10T11:54:14;6.65;;;6.18;;
1593;SDS011;790;47.000;16.084;2023-06-10T11:56:43;6.35;;;5.95;;
1593;SDS011;790;47.000;16.084;2023-06-10T11:59:10;7.22;;;6.70;;
1593;SDS011;790;47.000;16.084;2023-06-10T12:01:39;6.53;;;6.13;;
1593;SDS011;790;47.000;16.084;2023-06-10T12:04:11;7.10;;;6.45;;
1593;SDS011;790;47.000;16.084;2023-06-10T12:06:39;7.20;;;6.70;;
1593;SDS011;790;47.000;16.084;2023-06-10T12:09:13;7.25;;;6.70;;
1593;SDS011;790;47.000;16.084;2023-06-10T12:11:41;7.47;;;6.97;;
1593;SDS011;790;47.000;16.084;2023-06-10T12:14:09;7.60;;;7.10;;
1593;SDS011;790;47.000;16.084;2023-06-10T12:16:37;7.80;;;7.20;;
1593;SDS011;790;47.000;16.084;2023-06-10T12:19:04;8.23;;;7.63;;
1593;SDS011;790;47.000;16.084;2023-06-10T12:21:36;7.55;;;6.95;;
1593;SDS011;790;47.000;16.084;2023-06-10T12:24:07;8.05;;;7.28;;
1593;SDS011;790;47.000;16.084;2023-06-10T12:26:36;7.90;;;7.20;;
1593;SDS011;790;47.000;16.084;2023-06-10T12:29:17;7.10;;;6.60;;
1593;SDS011;790;47.000;16.084;2023-06-10T12:31:55;8.65;;;7.97;;
1593;SDS011;790;47.000;16.084;2023-06-10T12:34:31;9.15;;;8.35;;
1593;SDS011;790;47.000;16.084;2023-06-10T12:37:09;6.80;;;6.30;;
1593;SDS011;790;47.000;16.084;2023-06-10T12:39:40;7.60;;;7.00;;
1593;SDS011;790;47.000;16.084;2023-06-10T12:42:08;6.70;;;6.30;;
1593;SDS011;790;47.000;16.084;2023-06-10T12:44:38;12.85;;;11.68;;
1593;SDS011;790;47.000;16.084;2023-06-10T12:47:09;16.13;;;14.45;;
1593;SDS011;790;47.000;16.084;2023-06-10T12:49:38;31.27;;;26.23;;
1593;SDS011;790;47.000;16.084;2023-06-10T12:52:07;27.95;;;23.35;;
1593;SDS011;790;47.000;16.084;2023-06-10T12:54:34;51.80;;;38.95;;
1593;SDS011;790;47.000;16.084;2023-06-10T12:57:02;33.13;;;26.80;;
1593;SDS011;790;47.000;16.084;2023-06-10T12:59:30;9.98;;;9.02;;
1593;SDS011;790;47.000;16.084;2023-06-10T13:01:58;23.67;;;21.17;;
1593;SDS011;790;47.000;16.084;2023-06-10T13:04:25;22.67;;;20.38;;
1593;SDS011;790;47.000;16.084;2023-06-10T13:06:53;16.17;;;14.68;;
1593;SDS011;790;47.000;16.084;2023-06-10T13:09:25;9.30;;;8.43;;
1593;SDS011;790;47.000;16.084;2023-06-10T13:11:53;14.23;;;13.02;;
1593;SDS011;790;47.000;16.084;2023-06-10T13:14:20;12.10;;;11.10;;
1593;SDS011;790;47.000;16.084;2023-06-10T13:16:48;8.65;;;7.97;;
1593;SDS011;790;47.000;16.084;2023-06-10T13:19:15;7.90;;;7.30;;
1593;SDS011;790;47.000;16.084;2023-06-10T13:21:42;9.70;;;9.00;;
1593;SDS011;790;47.000;16.084;2023-06-10T13:24:09;7.35;;;6.85;;
1593;SDS011;790;47.000;16.084;2023-06-10T13:26:38;7.22;;;6.72;;
1593;SDS011;790;47.000;16.084;2023-06-10T13:29:05;7.72;;;7.15;;
1593;SDS011;790;47.000;16.084;2023-06-10T13:31:33;7.78;;;7.18;;
1593;SDS011;790;47.000;16.084;2023-06-10T13:34:00;8.00;;;7.47;;
1593;SDS011;790;47.000;16.084;2023-06-10T13:36:27;7.65;;;7.15;;
1593;SDS011;790;47.000;16.084;2023-06-10T13:38:54;9.07;;;8.25;;
1593;SDS011;790;47.000;16.084;2023-06-10T13:41:21;7.90;;;7.30;;
1593;SDS011;790;47.000;16.084;2023-06-10T13:43:50;8.15;;;7.55;;
1593;SDS011;790;47.000;16.084;2023-06-10T13:46:17;7.10;;;6.68;;
1593;SDS011;790;47.000;16.084;2023-06-10T13:48:46;8.00;;;7.35;;
1593;SDS011;790;47.000;16.084;2023-06-10T13:51:13;7.70;;;7.20;;
1593;SDS011;790;47.000;16.084;2023-06-10T13:53:41;8.52;;;7.90;;
1593;SDS011;790;47.000;16.084;2023-06-10T13:56:08;8.32;;;7.68;;
1593;SDS011;790;47.000;16.084;2023-06-10T13:58:35;9.68;;;8.32;;
1593;SDS011;790;47.000;16.084;2023-06-10T14:01:05;8.13;;;7.53;;
1593;SDS011;790;47.000;16.084;2023-06-10T14:03:33;7.38;;;6.88;;
1593;SDS011;790;47.000;16.084;2023-06-10T14:06:00;8.73;;;8.13;;
1593;SDS011;790;47.000;16.084;2023-06-10T14:08:27;7.88;;;7.28;;
1593;SDS011;790;47.000;16.084;2023-06-10T14:10:55;8.32;;;7.55;;
1593;SDS011;790;47.000;16.084;2023-06-10T14:13:22;8.05;;;7.45;;
1593;SDS011;790;47.000;16.084;2023-06-10T14:15:49;8.05;;;7.35;;
1593;SDS011;790;47.000;16.084;2023-06-10T14:18:18;8.23;;;7.63;;
1593;SDS011;790;47.000;16.084;2023-06-10T14:20:45;7.57;;;7.03;;
1593;SDS011;790;47.000;16.084;2023-06-10T14:23:12;7.97;;;7.28;;
1593;SDS011;790;47.000;16.084;2023-06-10T14:25:39;7.65;;;7.00;;
1593;SDS011;790;47.000;16.084;2023-06-10T14:28:06;8.27;;;7.60;;
1593;SDS011;790;47.000;16.084;2023-06-10T14:30:33;7.97;;;7.47;;
1593;SDS011;790;47.000;16.084;2023-06-10T14:33:01;7.07;;;6.68;;
1593;SDS011;790;47.000;16.084;2023-06-10T14:35:29;7.70;;;7.20;;
1593;SDS011;790;47.000;16.084;2023-06-10T14:37:56;7.88;;;7.28;;
1593;SDS011;790;47.000;16.084;2023-06-10T14:40:24;7.88;;;7.25;;
1593;SDS011;790;47.000;16.084;2023-06-10T14:42:53;7.43;;;6.82;;
1593;SDS011;790;47.000;16.084;2023-06-10T14:45:21;7.85;;;7.25;;
1593;SDS011;790;47.000;16.084;2023-06-10T14:47:48;7.72;;;7.20;;
1593;SDS011;790;47.000;16.084;2023-06-10T14:50:15;7.53;;;6.97;;
1593;SDS011;790;47.000;16.084;2023-06-10T14:52:43;8.25;;;7.50;;
1593;SDS011;790;47.000;16.084;2023-06-10T14:55:10;8.27;;;7.68;;
1593;SDS011;790;47.000;16.084;2023-06-10T14:57:37;7.18;;;6.68;;
1593;SDS011;790;47.000;16.084;2023-06-10T15:00:05;7.93;;;7.40;;
1593;SDS011;790;47.000;16.084;2023-06-10T15:02:33;7.88;;;7.28;;
1593;SDS011;790;47.000;16.084;2023-06-10T15:05:00;53.17;;;40.63;;
1593;SDS011;790;47.000;16.084;2023-06-10T15:07:28;12.35;;;11.18;;
1593;SDS011;790;47.000;16.084;2023-06-10T15:10:13;8.10;;;7.40;;
1593;SDS011;790;47.000;16.084;2023-06-10T15:12:43;8.35;;;7.45;;
1593;SDS011;790;47.000;16.084;2023-06-10T15:15:11;6.72;;;6.32;;
1593;SDS011;790;47.000;16.084;2023-06-10T15:17:40;8.07;;;7.47;;
1593;SDS011;790;47.000;16.084;2023-06-10T15:20:09;7.35;;;6.80;;